createdAt,value
2022-11-01T00:01:36.402Z,100526.00
2022-11-01T00:04:03.112Z,100534.00
2022-11-01T00:06:29.783Z,100537.00
2022-11-01T00:08:56.345Z,100541.00
2022-11-01T00:11:23.001Z,100547.00
2022-11-01T00:13:50.498Z,100554.00
2022-11-01T00:16:18.663Z,100547.00
2022-11-01T00:18:45.348Z,100555.00
2022-11-01T00:21:13.000Z,100557.00
2022-11-01T00:23:39.841Z,100554.00
2022-11-01T00:26:07.510Z,100562.00
2022-11-01T00:28:34.590Z,100555.00
2022-11-01T00:31:01.920Z,100560.00
2022-11-01T00:33:28.543Z,100567.00
2022-11-01T00:36:00.164Z,100563.00
2022-11-01T00:38:27.141Z,100560.00
2022-11-01T00:40:54.900Z,100573.00
2022-11-01T00:43:21.507Z,100575.00
2022-11-01T00:45:48.096Z,100582.00
2022-11-01T00:48:14.910Z,100579.00
2022-11-01T00:50:41.716Z,100583.00
2022-11-01T00:53:11.162Z,100593.00
2022-11-01T00:55:37.808Z,100591.00
2022-11-01T00:58:04.781Z,100597.00
2022-11-01T01:00:31.525Z,100608.00
2022-11-01T01:02:58.129Z,100604.00
2022-11-01T01:05:24.786Z,100623.00
2022-11-01T01:07:51.383Z,100615.00
2022-11-01T01:10:18.517Z,100601.00
2022-11-01T01:12:45.063Z,100608.00
2022-11-01T01:15:11.979Z,100608.00
2022-11-01T01:17:38.598Z,100618.00
2022-11-01T01:20:05.906Z,100618.00
2022-11-01T01:22:32.500Z,100636.00
2022-11-01T01:25:02.252Z,100644.00
2022-11-01T01:27:28.782Z,100643.00
2022-11-01T01:29:55.306Z,100645.00
2022-11-01T01:32:23.620Z,100647.00
2022-11-01T01:34:50.934Z,100653.00
2022-11-01T01:37:18.550Z,100655.00
2022-11-01T01:39:45.173Z,100655.00
2022-11-01T01:42:30.318Z,100668.00
2022-11-01T01:44:56.817Z,100680.00
2022-11-01T01:47:27.590Z,100668.00
2022-11-01T01:50:00.414Z,100684.00
2022-11-01T01:52:30.703Z,100678.00
2022-11-01T01:54:59.420Z,100677.00
2022-11-01T01:57:26.539Z,100684.00
2022-11-01T01:59:53.773Z,100681.00
2022-11-01T02:02:21.523Z,100680.00
2022-11-01T02:04:54.340Z,100681.00
2022-11-01T02:07:20.972Z,100688.00
2022-11-01T02:09:47.906Z,100681.00
2022-11-01T02:12:14.917Z,100685.00
2022-11-01T02:14:43.954Z,100674.00
2022-11-01T02:17:28.678Z,100697.00
2022-11-01T02:20:07.048Z,100710.00
2022-11-01T02:22:39.556Z,100704.00
2022-11-01T02:25:20.570Z,100720.00
2022-11-01T02:27:58.849Z,100727.00
2022-11-01T02:30:33.510Z,100715.00
2022-11-01T02:33:05.859Z,100724.00
2022-11-01T02:35:43.912Z,100725.00
2022-11-01T02:38:24.337Z,100730.00
2022-11-01T02:41:23.457Z,100733.00
2022-11-01T02:44:02.995Z,100729.00
2022-11-01T02:47:01.851Z,100740.00
2022-11-01T02:49:40.314Z,100736.00
2022-11-01T02:52:11.302Z,100732.00
2022-11-01T02:54:44.165Z,100733.00
2022-11-01T02:57:20.900Z,100733.00
2022-11-01T02:59:48.912Z,100744.00
2022-11-01T03:02:39.685Z,100745.00
2022-11-01T03:05:12.821Z,100745.00
2022-11-01T03:07:45.846Z,100751.00
2022-11-01T03:10:13.237Z,100762.00
2022-11-01T03:12:53.395Z,100747.00
2022-11-01T03:15:29.033Z,100772.00
2022-11-01T03:18:08.741Z,100779.00
2022-11-01T03:20:49.733Z,100784.00
2022-11-01T03:23:23.472Z,100793.00
2022-11-01T03:25:58.376Z,100794.00
2022-11-01T03:28:31.849Z,100806.00
2022-11-01T03:31:09.037Z,100791.00
2022-11-01T03:33:38.966Z,100800.00
2022-11-01T03:36:13.584Z,100797.00
2022-11-01T03:38:46.042Z,100778.00
2022-11-01T03:41:16.887Z,100788.00
2022-11-01T03:43:43.534Z,100807.00
2022-11-01T03:46:10.395Z,100805.00
2022-11-01T03:48:40.687Z,100796.00
2022-11-01T03:51:07.661Z,100797.00
2022-11-01T03:53:34.209Z,100797.00
2022-11-01T03:56:01.133Z,100802.00
2022-11-01T03:58:41.832Z,100797.00
2022-11-01T04:01:10.129Z,100804.00
2022-11-01T04:03:37.310Z,100802.00
2022-11-01T04:06:07.865Z,100809.00
2022-11-01T04:08:35.245Z,100822.00
2022-11-01T04:11:01.802Z,100821.00
2022-11-01T04:13:28.393Z,100832.00
2022-11-01T04:16:13.701Z,100849.00
2022-11-01T04:18:58.525Z,100853.00
2022-11-01T04:21:26.434Z,100853.00
2022-11-01T04:23:53.504Z,100829.00
2022-11-01T04:26:22.953Z,100839.00
2022-11-01T04:28:59.147Z,100844.00
2022-11-01T04:31:34.835Z,100844.00
2022-11-01T04:34:03.468Z,100850.00
2022-11-01T04:36:30.066Z,100863.00
2022-11-01T04:38:57.769Z,100859.00
2022-11-01T04:41:29.238Z,100873.00
2022-11-01T04:43:58.150Z,100877.00
2022-11-01T04:46:25.160Z,100869.00
2022-11-01T04:48:51.759Z,100879.00
2022-11-01T04:51:18.423Z,100888.00
2022-11-01T04:53:45.377Z,100891.00
2022-11-01T04:56:13.637Z,100901.00
2022-11-01T04:58:44.731Z,100912.00
2022-11-01T05:01:14.446Z,100907.00
2022-11-01T05:03:41.545Z,100914.00
2022-11-01T05:06:08.229Z,100926.00
2022-11-01T05:08:34.957Z,100930.00
2022-11-01T05:11:01.830Z,100923.00
2022-11-01T05:13:28.429Z,100935.00
2022-11-01T05:16:17.932Z,100940.00
2022-11-01T05:18:43.002Z,100945.00
2022-11-01T05:21:09.589Z,100935.00
2022-11-01T05:23:36.127Z,100947.00
2022-11-01T05:26:02.848Z,100945.00
2022-11-01T05:28:29.545Z,100949.00
2022-11-01T05:30:57.897Z,100963.00
2022-11-01T05:33:24.478Z,100955.00
2022-11-01T05:35:51.081Z,100956.00
2022-11-01T05:38:17.613Z,100973.00
2022-11-01T05:40:44.228Z,100975.00
2022-11-01T05:43:10.749Z,100997.00
2022-11-01T05:45:37.404Z,100995.00
2022-11-01T05:48:04.754Z,100996.00
2022-11-01T05:50:31.355Z,100986.00
2022-11-01T05:53:06.113Z,100995.00
2022-11-01T05:55:32.757Z,100998.00
2022-11-01T05:57:59.321Z,101012.00
2022-11-01T06:00:25.899Z,101005.00
2022-11-01T06:02:52.464Z,101000.00
2022-11-01T06:05:19.091Z,101011.00
2022-11-01T06:07:45.670Z,100997.00
2022-11-01T06:10:12.219Z,101005.00
2022-11-01T06:12:38.797Z,101002.00
2022-11-01T06:15:05.817Z,101013.00
2022-11-01T06:17:32.389Z,101021.00
2022-11-01T06:19:59.865Z,101031.00
2022-11-01T06:22:26.428Z,101031.00
2022-11-01T06:24:52.994Z,101040.00
2022-11-01T06:27:19.576Z,101049.00
2022-11-01T06:29:46.125Z,101042.00
2022-11-01T06:32:12.665Z,101050.00
2022-11-01T06:34:42.346Z,101055.00
2022-11-01T06:37:11.376Z,101068.00
2022-11-01T06:39:38.020Z,101078.00
2022-11-01T06:42:05.068Z,101070.00
2022-11-01T06:44:31.682Z,101086.00
2022-11-01T06:46:58.216Z,101090.00
2022-11-01T06:49:25.127Z,101094.00
2022-11-01T06:51:51.715Z,101090.00
2022-11-01T06:54:18.409Z,101105.00
2022-11-01T06:56:47.719Z,101107.00
2022-11-01T06:59:16.506Z,101110.00
2022-11-01T07:01:44.186Z,101116.00
2022-11-01T07:06:38.539Z,101117.00
2022-11-01T07:09:05.656Z,101121.00
2022-11-01T07:11:33.251Z,101116.00
2022-11-01T07:13:59.883Z,101123.00
2022-11-01T07:16:26.927Z,101134.00
2022-11-01T07:18:53.601Z,101133.00
2022-11-01T07:21:20.529Z,101135.00
2022-11-01T07:23:47.213Z,101151.00
2022-11-01T07:26:13.935Z,101148.00
2022-11-01T07:28:40.819Z,101164.00
2022-11-01T07:31:08.005Z,101159.00
2022-11-01T07:33:35.097Z,101164.00
2022-11-01T07:36:02.568Z,101163.00
2022-11-01T07:38:29.238Z,101169.00
2022-11-01T07:40:55.849Z,101166.00
2022-11-01T07:43:22.960Z,101172.00
2022-11-01T07:45:49.676Z,101172.00
2022-11-01T07:48:18.906Z,101175.00
2022-11-01T07:50:46.013Z,101181.00
2022-11-01T07:53:17.539Z,101184.00
2022-11-01T07:55:45.364Z,101201.00
2022-11-01T07:58:13.014Z,101194.00
2022-11-01T08:00:40.199Z,101193.00
2022-11-01T08:03:10.419Z,101195.00
2022-11-01T08:05:37.775Z,101191.00
2022-11-01T08:08:05.879Z,101193.00
2022-11-01T08:10:33.797Z,101208.00
2022-11-01T08:13:21.750Z,101215.00
2022-11-01T08:15:50.048Z,101207.00
2022-11-01T08:18:17.980Z,101217.00
2022-11-01T08:20:44.951Z,101217.00
2022-11-01T08:23:11.753Z,101230.00
2022-11-01T08:25:38.717Z,101216.00
2022-11-01T08:28:08.176Z,101219.00
2022-11-01T08:30:38.805Z,101218.00
2022-11-01T08:33:05.974Z,101238.00
2022-11-01T08:35:33.872Z,101245.00
2022-11-01T08:38:01.353Z,101227.00
2022-11-01T08:40:28.591Z,101235.00
2022-11-01T08:42:56.219Z,101247.00
2022-11-01T08:45:23.167Z,101237.00
2022-11-01T08:47:49.744Z,101253.00
2022-11-01T08:50:17.905Z,101267.00
2022-11-01T08:52:44.527Z,101254.00
2022-11-01T08:55:11.778Z,101264.00
2022-11-01T08:57:38.708Z,101259.00
2022-11-01T09:00:13.269Z,101258.00
2022-11-01T09:02:40.028Z,101264.00
2022-11-01T09:05:07.701Z,101272.00
2022-11-01T09:07:37.923Z,101277.00
2022-11-01T09:10:05.225Z,101285.00
2022-11-01T09:12:32.070Z,101275.00
2022-11-01T09:14:58.692Z,101272.00
2022-11-01T09:17:25.328Z,101293.00
2022-11-01T09:19:51.890Z,101293.00
2022-11-01T09:22:18.439Z,101270.00
2022-11-01T09:24:45.334Z,101277.00
2022-11-01T09:27:11.908Z,101273.00
2022-11-01T09:29:38.515Z,101284.00
2022-11-01T09:32:06.797Z,101281.00
2022-11-01T09:34:33.933Z,101273.00
2022-11-01T09:37:00.651Z,101290.00
2022-11-01T09:39:27.620Z,101278.00
2022-11-01T09:42:04.546Z,101287.00
2022-11-01T09:44:35.661Z,101292.00
2022-11-01T09:47:14.564Z,101285.00
2022-11-01T09:49:45.912Z,101301.00
2022-11-01T09:52:21.224Z,101295.00
2022-11-01T09:54:48.576Z,101306.00
2022-11-01T09:57:33.718Z,101311.00
2022-11-01T10:00:13.788Z,101304.00
2022-11-01T10:05:54.937Z,101309.00
2022-11-01T10:08:36.685Z,101317.00
2022-11-01T10:11:35.632Z,101314.00
2022-11-01T10:14:22.366Z,101314.00
2022-11-01T10:17:04.498Z,101325.00
2022-11-01T10:19:33.908Z,101317.00
2022-11-01T10:22:06.157Z,101326.00
2022-11-01T10:24:42.928Z,101323.00
2022-11-01T10:27:19.902Z,101340.00
2022-11-01T10:30:06.203Z,101338.00
2022-11-01T10:32:44.815Z,101333.00
2022-11-01T10:35:42.495Z,101332.00
2022-11-01T10:38:26.635Z,101333.00
2022-11-01T10:41:01.484Z,101332.00
2022-11-01T10:43:28.094Z,101328.00
2022-11-01T10:45:57.783Z,101324.00
2022-11-01T10:48:39.907Z,101336.00
2022-11-01T10:51:08.407Z,101323.00
2022-11-01T10:53:41.455Z,101327.00
2022-11-01T10:56:12.449Z,101329.00
2022-11-01T10:58:45.879Z,101339.00
2022-11-01T11:01:17.125Z,101319.00
2022-11-01T11:03:45.824Z,101315.00
2022-11-01T11:06:15.547Z,101308.00
2022-11-01T11:08:44.815Z,101306.00
2022-11-01T11:11:15.817Z,101308.00
2022-11-01T11:13:46.043Z,101313.00
2022-11-01T11:16:30.102Z,101310.00
2022-11-01T11:19:22.243Z,101308.00
2022-11-01T11:21:51.665Z,101309.00
2022-11-01T11:24:35.031Z,101304.00
2022-11-01T11:27:03.098Z,101308.00
2022-11-01T11:29:29.666Z,101294.00
2022-11-01T11:32:00.367Z,101289.00
2022-11-01T11:34:34.209Z,101290.00
2022-11-01T11:37:06.898Z,101302.00
2022-11-01T11:39:35.765Z,101300.00
2022-11-01T11:42:22.853Z,101280.00
2022-11-01T11:44:55.583Z,101294.00
2022-11-01T11:47:35.775Z,101295.00
2022-11-01T11:50:32.375Z,101294.00
2022-11-01T11:53:03.326Z,101301.00
2022-11-01T11:55:43.327Z,101296.00
2022-11-01T11:58:25.444Z,101311.00
2022-11-01T12:01:20.272Z,101305.00
2022-11-01T12:03:54.131Z,101305.00
2022-11-01T12:06:26.164Z,101306.00
2022-11-01T12:08:57.999Z,101308.00
2022-11-01T12:11:37.491Z,101301.00
2022-11-01T12:14:07.427Z,101307.00
2022-11-01T12:16:41.608Z,101312.00
2022-11-01T12:19:23.819Z,101301.00
2022-11-01T12:21:51.435Z,101295.00
2022-11-01T12:24:26.813Z,101305.00
2022-11-01T12:27:02.459Z,101302.00
2022-11-01T12:29:39.150Z,101302.00
2022-11-01T12:32:20.196Z,101304.00
2022-11-01T12:34:50.291Z,101306.00
2022-11-01T12:37:23.038Z,101297.00
2022-11-01T12:40:21.158Z,101299.00
2022-11-01T12:42:51.930Z,101300.00
2022-11-01T12:45:48.073Z,101299.00
2022-11-01T12:48:24.007Z,101289.00
2022-11-01T12:50:56.138Z,101303.00
2022-11-01T12:53:24.989Z,101298.00
2022-11-01T12:55:52.078Z,101287.00
2022-11-01T12:58:21.438Z,101290.00
2022-11-01T13:01:12.925Z,101291.00
2022-11-01T13:04:00.913Z,101291.00
2022-11-01T13:06:59.716Z,101286.00
2022-11-01T13:09:49.033Z,101283.00
2022-11-01T13:12:28.100Z,101284.00
2022-11-01T13:15:03.634Z,101288.00
2022-11-01T13:17:42.653Z,101288.00
2022-11-01T13:20:24.102Z,101289.00
2022-11-01T13:23:19.186Z,101290.00
2022-11-01T13:25:55.911Z,101285.00
2022-11-01T13:28:39.163Z,101290.00
2022-11-01T13:31:20.033Z,101283.00
2022-11-01T13:34:05.053Z,101296.00
2022-11-01T13:36:45.096Z,101299.00
2022-11-01T13:39:30.471Z,101296.00
2022-11-01T13:42:38.055Z,101293.00
2022-11-01T13:45:07.751Z,101298.00
2022-11-01T13:47:58.516Z,101294.00
2022-11-01T13:50:47.243Z,101292.00
2022-11-01T13:53:28.990Z,101303.00
2022-11-01T13:56:02.953Z,101297.00
2022-11-01T13:58:31.487Z,101286.00
2022-11-01T14:01:31.998Z,101298.00
2022-11-01T14:04:13.839Z,101282.00
2022-11-01T14:06:51.718Z,101276.00
2022-11-01T14:09:29.530Z,101270.00
2022-11-01T14:12:02.704Z,101271.00
2022-11-01T14:14:32.520Z,101267.00
2022-11-01T14:17:28.545Z,101253.00
2022-11-01T14:19:55.719Z,101260.00
2022-11-01T14:22:22.249Z,101265.00
2022-11-01T14:24:54.310Z,101251.00
2022-11-01T14:27:48.822Z,101250.00
2022-11-01T14:30:23.567Z,101257.00
2022-11-01T14:33:01.043Z,101249.00
2022-11-01T14:35:31.009Z,101253.00
2022-11-01T14:38:02.858Z,101252.00
2022-11-01T14:40:32.673Z,101264.00
2022-11-01T14:43:16.939Z,101262.00
2022-11-01T14:45:54.284Z,101256.00
2022-11-01T14:48:34.717Z,101258.00
2022-11-01T14:51:23.862Z,101251.00
2022-11-01T14:53:57.016Z,101252.00
2022-11-01T14:56:35.834Z,101257.00
2022-11-01T14:59:27.159Z,101254.00
2022-11-01T15:02:02.921Z,101247.00
2022-11-01T15:04:33.066Z,101244.00
2022-11-01T15:07:00.763Z,101255.00
2022-11-01T15:09:30.212Z,101238.00
2022-11-01T15:12:06.198Z,101229.00
2022-11-01T15:14:40.490Z,101249.00
2022-11-01T15:17:16.996Z,101233.00
2022-11-01T15:19:45.329Z,101238.00
2022-11-01T15:22:20.767Z,101233.00
2022-11-01T15:24:51.196Z,101230.00
2022-11-01T15:27:21.027Z,101234.00
2022-11-01T15:29:48.517Z,101235.00
2022-11-01T15:32:30.889Z,101227.00
2022-11-01T15:35:00.136Z,101224.00
2022-11-01T15:37:32.424Z,101225.00
2022-11-01T15:40:25.981Z,101225.00
2022-11-01T15:43:00.759Z,101235.00
2022-11-01T15:45:38.676Z,101238.00
2022-11-01T15:48:10.979Z,101232.00
2022-11-01T15:50:41.558Z,101246.00
2022-11-01T15:53:11.294Z,101247.00
2022-11-01T15:55:44.743Z,101270.00
2022-11-01T15:58:25.594Z,101266.00
2022-11-01T16:00:57.279Z,101259.00
2022-11-01T16:03:32.551Z,101264.00
2022-11-01T16:06:06.731Z,101282.00
2022-11-01T16:09:05.418Z,101278.00
2022-11-01T16:11:39.036Z,101278.00
2022-11-01T16:14:14.960Z,101285.00
2022-11-01T16:17:33.109Z,101268.00
2022-11-01T16:20:00.154Z,101269.00
2022-11-01T16:22:34.467Z,101262.00
2022-11-01T16:25:13.910Z,101272.00
2022-11-01T16:28:10.704Z,101281.00
2022-11-01T16:30:45.165Z,101272.00
2022-11-01T16:33:30.583Z,101258.00
2022-11-01T16:36:20.092Z,101267.00
2022-11-01T16:38:52.015Z,101264.00
2022-11-01T16:41:22.305Z,101255.00
2022-11-01T16:43:53.438Z,101274.00
2022-11-01T16:46:20.968Z,101266.00
2022-11-01T16:48:51.987Z,101271.00
2022-11-01T16:51:26.611Z,101270.00
2022-11-01T16:54:00.302Z,101275.00
2022-11-01T16:56:37.707Z,101275.00
2022-11-01T16:59:33.726Z,101268.00
2022-11-01T17:02:02.400Z,101283.00
2022-11-01T17:04:29.560Z,101285.00
2022-11-01T17:06:59.652Z,101275.00
2022-11-01T17:09:30.772Z,101271.00
2022-11-01T17:11:57.312Z,101278.00
2022-11-01T17:14:24.016Z,101273.00
2022-11-01T17:16:52.218Z,101272.00
2022-11-01T17:19:21.592Z,101291.00
2022-11-01T17:21:50.488Z,101289.00
2022-11-01T17:24:20.187Z,101287.00
2022-11-01T17:26:47.825Z,101282.00
2022-11-01T17:29:17.229Z,101289.00
2022-11-01T17:31:43.785Z,101288.00
2022-11-01T17:34:10.350Z,101286.00
2022-11-01T17:36:39.945Z,101306.00
2022-11-01T17:39:10.271Z,101311.00
2022-11-01T17:41:37.213Z,101325.00
2022-11-01T17:44:03.818Z,101339.00
2022-11-01T17:46:30.389Z,101330.00
2022-11-01T17:48:57.090Z,101355.00
2022-11-01T17:51:23.784Z,101374.00
2022-11-01T17:53:54.525Z,101326.00
2022-11-01T17:56:21.626Z,101320.00
2022-11-01T17:58:52.192Z,101332.00
2022-11-01T18:01:20.744Z,101339.00
2022-11-01T18:03:47.814Z,101330.00
2022-11-01T18:06:14.686Z,101337.00
2022-11-01T18:08:50.306Z,101332.00
2022-11-01T18:11:19.857Z,101330.00
2022-11-01T18:14:05.205Z,101349.00
2022-11-01T18:16:48.644Z,101343.00
2022-11-01T18:19:34.594Z,101337.00
2022-11-01T18:22:16.208Z,101337.00
2022-11-01T18:24:57.363Z,101326.00
2022-11-01T18:27:35.829Z,101289.00
2022-11-01T18:30:14.668Z,101291.00
2022-11-01T18:32:54.651Z,101277.00
2022-11-01T18:35:45.319Z,101292.00
2022-11-01T18:38:26.247Z,101298.00
2022-11-01T18:41:01.080Z,101286.00
2022-11-01T18:43:33.433Z,101291.00
2022-11-01T18:48:56.170Z,101300.00
2022-11-01T18:51:26.602Z,101281.00
2022-11-01T18:54:03.406Z,101278.00
2022-11-01T18:56:29.974Z,101285.00
2022-11-01T18:59:00.377Z,101286.00
2022-11-01T19:01:31.933Z,101285.00
2022-11-01T19:04:02.644Z,101283.00
2022-11-01T19:06:32.587Z,101283.00
2022-11-01T19:09:02.617Z,101271.00
2022-11-01T19:11:31.439Z,101266.00
2022-11-01T19:13:59.862Z,101261.00
2022-11-01T19:16:26.678Z,101263.00
2022-11-01T19:18:53.478Z,101274.00
2022-11-01T19:21:21.643Z,101256.00
2022-11-01T19:23:52.056Z,101251.00
2022-11-01T19:26:23.876Z,101240.00
2022-11-01T19:28:52.573Z,101256.00
2022-11-01T19:31:47.958Z,101252.00
2022-11-01T19:34:27.204Z,101254.00
2022-11-01T19:36:54.420Z,101256.00
2022-11-01T19:39:26.253Z,101263.00
2022-11-01T19:41:54.804Z,101258.00
2022-11-01T19:44:25.626Z,101262.00
2022-11-01T19:47:17.200Z,101263.00
2022-11-01T19:49:44.051Z,101275.00
2022-11-01T19:52:10.640Z,101269.00
2022-11-01T19:54:40.360Z,101285.00
2022-11-01T19:57:33.681Z,101285.00
2022-11-01T20:00:19.720Z,101277.00
2022-11-01T20:02:51.748Z,101291.00
2022-11-01T20:05:33.085Z,101284.00
2022-11-01T20:08:14.583Z,101289.00
2022-11-01T20:10:41.201Z,101288.00
2022-11-01T20:13:07.798Z,101291.00
2022-11-01T20:15:34.346Z,101286.00
2022-11-01T20:18:02.083Z,101280.00
2022-11-01T20:20:30.211Z,101278.00
2022-11-01T20:23:20.508Z,101290.00
2022-11-01T20:25:43.394Z,101281.00
2022-11-01T20:28:09.967Z,101290.00
2022-11-01T20:30:36.506Z,101279.00
2022-11-01T20:33:03.495Z,101307.00
2022-11-01T20:35:30.297Z,101289.00
2022-11-01T20:37:58.020Z,101308.00
2022-11-01T20:40:25.350Z,101310.00
2022-11-01T20:42:52.515Z,101313.00
2022-11-01T20:45:19.510Z,101315.00
2022-11-01T20:47:46.640Z,101325.00
2022-11-01T20:50:15.073Z,101321.00
2022-11-01T20:52:44.785Z,101327.00
2022-11-01T20:55:12.764Z,101333.00
2022-11-01T20:57:39.348Z,101318.00
2022-11-01T21:00:07.414Z,101324.00
2022-11-01T21:02:34.632Z,101336.00
2022-11-01T21:05:20.803Z,101351.00
2022-11-01T21:07:48.088Z,101328.00
2022-11-01T21:10:29.620Z,101342.00
2022-11-01T21:12:57.070Z,101318.00
2022-11-01T21:15:23.636Z,101305.00
2022-11-01T21:18:23.858Z,101297.00
2022-11-01T21:20:50.526Z,101294.00
2022-11-01T21:23:29.171Z,101276.00
2022-11-01T21:25:59.380Z,101293.00
2022-11-01T21:28:30.252Z,101292.00
2022-11-01T21:31:14.664Z,101280.00
2022-11-01T21:33:43.705Z,101285.00
2022-11-01T21:36:18.904Z,101280.00
2022-11-01T21:38:53.921Z,101280.00
2022-11-01T21:41:23.864Z,101282.00
2022-11-01T21:43:51.418Z,101273.00
2022-11-01T21:46:21.459Z,101270.00
2022-11-01T21:48:49.646Z,101266.00
2022-11-01T21:51:16.313Z,101269.00
2022-11-01T21:53:42.935Z,101278.00
2022-11-01T21:56:09.730Z,101281.00
2022-11-01T21:58:36.280Z,101274.00
2022-11-01T22:01:02.837Z,101276.00
2022-11-01T22:03:29.464Z,101274.00
2022-11-01T22:05:56.037Z,101275.00
2022-11-01T22:08:22.567Z,101280.00
2022-11-01T22:10:49.113Z,101278.00
2022-11-01T22:13:15.798Z,101280.00
2022-11-01T22:15:42.501Z,101303.00
2022-11-01T22:18:09.058Z,101295.00
2022-11-01T22:20:35.588Z,101300.00
2022-11-01T22:23:02.480Z,101292.00
2022-11-01T22:25:29.196Z,101295.00
2022-11-01T22:27:56.030Z,101289.00
2022-11-01T22:30:22.622Z,101295.00
2022-11-01T22:32:49.153Z,101295.00
2022-11-01T22:35:15.748Z,101289.00
2022-11-01T22:37:42.305Z,101294.00
2022-11-01T22:40:13.082Z,101288.00
2022-11-01T22:42:40.518Z,101273.00
2022-11-01T22:45:15.766Z,101277.00
2022-11-01T22:47:42.993Z,101283.00
2022-11-01T22:50:14.079Z,101282.00
2022-11-01T22:52:46.762Z,101291.00
2022-11-01T22:55:13.669Z,101297.00
2022-11-01T22:57:57.776Z,101288.00
2022-11-01T23:00:30.914Z,101295.00
2022-11-01T23:03:22.025Z,101287.00
2022-11-01T23:05:56.918Z,101302.00
2022-11-01T23:08:27.370Z,101309.00
2022-11-01T23:10:54.476Z,101316.00
2022-11-01T23:13:51.730Z,101381.00
2022-11-01T23:16:27.510Z,101371.00
2022-11-01T23:18:57.654Z,101365.00
2022-11-01T23:21:24.893Z,101359.00
2022-11-01T23:23:52.033Z,101346.00
2022-11-01T23:26:20.201Z,101343.00
2022-11-01T23:28:55.585Z,101359.00
2022-11-01T23:31:24.465Z,101342.00
2022-11-01T23:33:51.593Z,101314.00
2022-11-01T23:36:23.151Z,101325.00
2022-11-01T23:38:51.347Z,101325.00
2022-11-01T23:41:25.742Z,101305.00
2022-11-01T23:43:56.112Z,101321.00
2022-11-01T23:46:24.227Z,101321.00
2022-11-01T23:48:59.655Z,101320.00
2022-11-01T23:51:26.283Z,101318.00
2022-11-01T23:53:54.659Z,101305.00
2022-11-01T23:56:22.024Z,101308.00
2022-11-01T23:58:54.228Z,101310.00
